Terminal Aerodrome Forecast
Issued by NWS

Home | Current Version | Previous Version | Text Only | Print | Product List | Glossary On
Versions: 1 2 3 4 5 6 7 8 9 10 11 12 13 14 15 16
000
FTUS44 KLIX 270617 AAA
TAFMCB
TAF AMD
KMCB 270617Z 2706/2806 19005KT P6SM BKN008
     FM271600 20008KT P6SM BKN020
     FM271900 20009KT P6SM BKN035
     FM280100 19007KT P6SM BKN100=

USA.gov is the U.S. government's official web portal to all federal, state and local government web resources and services.